Time;durP1;ratioP1;P1;durP2;ratioP2;P2;SDS_P1;SDS_P2;PMS_P1;PMS_P2;Temp;Humidity;BMP_temperature;BMP_pressure;BME280_temperature;BME280_humidity;BME280_pressure;Samples;Min_cycle;Max_cycle;Signal;HPM_P1;HPM_P2
2021/04/08 00:00:20;;;;;;;1.67;1.10;;;1.40;82.80;;;;;;5091819;28;20174;-68
2021/04/08 00:02:45;;;;;;;1.30;1.20;;;1.40;82.90;;;;;;5093654;28;20633;-70
2021/04/08 00:05:13;;;;;;;1.27;1.27;;;1.30;82.90;;;;;;5095836;28;20314;-70
2021/04/08 00:07:39;;;;;;;4.33;0.93;;;1.30;83.10;;;;;;5094987;28;20961;-69
2021/04/08 00:10:07;;;;;;;3.10;1.07;;;1.40;83.10;;;;;;5094238;28;20284;-69
2021/04/08 00:12:33;;;;;;;2.17;1.23;;;1.40;83.10;;;;;;5094182;28;20174;-70
2021/04/08 00:14:59;;;;;;;1.20;1.20;;;1.40;83.20;;;;;;5094454;28;20220;-69
2021/04/08 00:17:24;;;;;;;1.20;1.20;;;1.40;83.20;;;;;;5094662;28;20177;-70
2021/04/08 00:19:50;;;;;;;1.20;0.93;;;1.30;83.10;;;;;;5093901;28;20221;-70
2021/04/08 00:22:16;;;;;;;5.23;1.70;;;1.20;83.30;;;;;;5093447;28;20242;-70
2021/04/08 00:24:42;;;;;;;1.40;1.40;;;1.30;83.30;;;;;;5092199;28;20653;-70
2021/04/08 00:27:08;;;;;;;3.70;1.83;;;1.30;83.40;;;;;;5087048;28;20178;-70
2021/04/08 00:29:33;;;;;;;0.93;0.93;;;1.30;83.40;;;;;;5093579;28;20206;-70
2021/04/08 00:31:59;;;;;;;0.90;0.90;;;1.20;83.50;;;;;;5091657;28;20261;-70
2021/04/08 00:34:25;;;;;;;1.37;1.30;;;1.20;83.60;;;;;;5077235;28;20659;-70
2021/04/08 00:36:50;;;;;;;2.30;1.30;;;1.20;83.60;;;;;;5091170;28;20178;-70
2021/04/08 00:39:16;;;;;;;1.33;1.20;;;1.10;83.80;;;;;;5091615;28;20240;-70
2021/04/08 00:41:43;;;;;;;1.47;1.47;;;1.10;83.90;;;;;;5090947;28;20183;-70
2021/04/08 00:44:09;;;;;;;1.07;0.97;;;1.00;83.90;;;;;;5092039;28;20185;-70
2021/04/08 00:46:35;;;;;;;1.33;1.23;;;1.00;83.80;;;;;;5092484;28;20178;-70
2021/04/08 00:49:01;;;;;;;1.93;1.63;;;0.90;84.00;;;;;;5092015;28;20210;-70
2021/04/08 00:51:27;;;;;;;1.90;1.80;;;0.90;84.10;;;;;;5092415;28;20284;-70
2021/04/08 00:53:53;;;;;;;2.40;1.20;;;0.90;84.00;;;;;;5078323;28;20280;-70
2021/04/08 00:56:20;;;;;;;2.83;1.97;;;0.90;84.10;;;;;;5091915;28;20670;-70
2021/04/08 00:58:46;;;;;;;1.20;1.20;;;0.80;84.10;;;;;;5096861;28;20201;-70
2021/04/08 01:01:12;;;;;;;1.20;1.20;;;0.80;84.20;;;;;;5090791;28;20186;-69
2021/04/08 01:03:39;;;;;;;1.40;1.13;;;0.80;84.40;;;;;;5092689;28;20189;-70
2021/04/08 01:06:05;;;;;;;1.83;1.63;;;0.70;84.40;;;;;;5093998;28;20218;-70
2021/04/08 01:08:31;;;;;;;1.97;1.87;;;0.70;84.60;;;;;;5095235;28;20202;-70
2021/04/08 01:10:57;;;;;;;1.43;1.33;;;0.70;84.50;;;;;;5093905;28;20177;-70
2021/04/08 01:13:24;;;;;;;1.50;1.37;;;0.70;84.50;;;;;;5094467;28;20204;-69
2021/04/08 01:15:50;;;;;;;1.17;1.17;;;0.70;84.60;;;;;;5094960;28;20174;-70
2021/04/08 01:18:29;;;;;;;2.57;1.67;;;0.60;84.70;;;;;;5090391;28;20257;-69
2021/04/08 01:21:29;;;;;;;2.63;1.40;;;0.60;84.80;;;;;;5094125;28;20177;-70
2021/04/08 01:24:14;;;;;;;0.93;0.93;;;0.60;84.90;;;;;;5052840;28;20711;-70
2021/04/08 01:26:54;;;;;;;2.43;1.50;;;0.60;84.70;;;;;;5052749;28;20274;-70
2021/04/08 01:29:50;;;;;;;1.10;1.10;;;0.60;84.70;;;;;;5049705;28;20754;-69
2021/04/08 01:32:17;;;;;;;1.00;0.90;;;0.60;84.80;;;;;;5048593;28;20210;-69
2021/04/08 01:34:48;;;;;;;1.00;1.00;;;0.50;84.90;;;;;;5054210;28;20296;-70
2021/04/08 01:37:19;;;;;;;2.23;1.27;;;0.50;84.90;;;;;;5050167;28;20184;-70
2021/04/08 01:39:47;;;;;;;4.33;1.40;;;0.50;85.10;;;;;;5048670;28;20244;-70
2021/04/08 01:42:14;;;;;;;0.97;0.97;;;0.50;85.10;;;;;;5049875;28;20178;-70
2021/04/08 01:44:41;;;;;;;1.67;1.60;;;0.50;85.30;;;;;;5052942;28;20183;-70
2021/04/08 01:47:10;;;;;;;1.67;1.57;;;0.50;85.20;;;;;;5050891;28;20191;-70
2021/04/08 01:49:40;;;;;;;1.83;1.53;;;0.50;85.10;;;;;;5047461;28;20326;-70
2021/04/08 01:52:07;;;;;;;1.03;1.03;;;0.50;85.10;;;;;;5035578;28;20220;-70
2021/04/08 01:54:36;;;;;;;1.10;1.10;;;0.50;85.10;;;;;;5050553;28;20183;-69
2021/04/08 01:57:07;;;;;;;1.23;1.23;;;0.50;85.20;;;;;;5052681;28;20652;-70
2021/04/08 01:59:35;;;;;;;1.47;1.47;;;0.50;85.20;;;;;;5067567;28;20273;-70
2021/04/08 02:02:01;;;;;;;1.07;1.07;;;0.60;85.20;;;;;;5091192;28;20665;-70
2021/04/08 02:04:29;;;;;;;1.90;1.33;;;0.60;85.00;;;;;;5090009;28;20182;-70
2021/04/08 02:06:57;;;;;;;0.87;0.83;;;0.60;85.10;;;;;;5092922;28;20170;-70
2021/04/08 02:09:25;;;;;;;1.10;1.10;;;0.60;85.10;;;;;;5092895;28;20240;-70
2021/04/08 02:11:52;;;;;;;1.20;1.20;;;0.60;85.20;;;;;;5093462;28;20961;-70
2021/04/08 02:14:20;;;;;;;1.53;1.17;;;0.60;85.00;;;;;;5092329;28;20185;-70
2021/04/08 02:16:47;;;;;;;1.60;1.13;;;0.60;85.00;;;;;;5090157;28;20268;-70
2021/04/08 02:19:14;;;;;;;3.77;1.10;;;0.60;85.00;;;;;;5090243;28;20182;-70
2021/04/08 02:21:41;;;;;;;1.33;1.33;;;0.60;85.10;;;;;;5093996;28;20261;-70
2021/04/08 02:24:11;;;;;;;0.87;0.80;;;0.60;85.00;;;;;;5086969;28;20177;-70
2021/04/08 02:26:40;;;;;;;2.67;1.53;;;0.60;85.20;;;;;;5088220;28;20303;-70
2021/04/08 02:29:07;;;;;;;1.20;1.20;;;0.60;85.30;;;;;;5094537;28;20214;-70
2021/04/08 02:31:35;;;;;;;3.73;1.20;;;0.60;85.30;;;;;;5096124;28;20182;-70
2021/04/08 02:34:01;;;;;;;0.97;0.93;;;0.50;85.40;;;;;;5096137;28;20171;-70
2021/04/08 02:36:27;;;;;;;2.20;1.20;;;0.60;85.40;;;;;;5091799;28;20189;-70
2021/04/08 02:38:53;;;;;;;0.90;0.90;;;0.60;85.50;;;;;;5089183;28;20261;-70
2021/04/08 02:41:19;;;;;;;1.50;1.33;;;0.60;85.40;;;;;;5096682;28;20723;-70
2021/04/08 02:43:45;;;;;;;1.37;1.23;;;0.60;85.20;;;;;;5095483;28;20630;-69
2021/04/08 02:46:11;;;;;;;1.00;1.00;;;0.70;85.20;;;;;;5091097;28;20181;-70
2021/04/08 02:48:36;;;;;;;1.23;1.20;;;0.70;85.10;;;;;;5091718;28;20210;-70
2021/04/08 02:51:09;;;;;;;1.33;1.33;;;0.70;85.00;;;;;;5092527;28;20182;-70
2021/04/08 02:54:21;;;;;;;1.90;1.57;;;0.70;85.00;;;;;;5092971;28;20197;-70
2021/04/08 02:56:55;;;;;;;1.50;1.40;;;0.70;84.90;;;;;;5035243;28;20273;-70
2021/04/08 02:59:37;;;;;;;1.40;1.07;;;0.70;85.10;;;;;;5034865;28;20887;-70
2021/04/08 03:02:08;;;;;;;1.10;1.10;;;0.70;85.20;;;;;;5027817;28;20200;-69
2021/04/08 03:04:41;;;;;;;0.90;0.90;;;0.70;86.00;;;;;;5030794;28;20175;-70
2021/04/08 03:07:08;;;;;;;1.27;1.27;;;0.70;86.00;;;;;;5033966;28;20200;-70
2021/04/08 03:09:39;;;;;;;3.40;2.20;;;0.70;85.70;;;;;;5034788;28;20208;-69
2021/04/08 03:12:08;;;;;;;1.20;1.20;;;0.70;85.60;;;;;;5029147;28;20215;-69
2021/04/08 03:14:39;;;;;;;2.10;1.20;;;0.70;85.70;;;;;;5031259;28;20241;-69
2021/04/08 03:17:06;;;;;;;2.57;1.73;;;0.70;86.00;;;;;;5036182;28;20202;-70
2021/04/08 03:19:34;;;;;;;2.27;2.07;;;0.70;86.20;;;;;;5032324;28;20196;-70
2021/04/08 03:22:01;;;;;;;1.83;1.73;;;0.70;86.40;;;;;;5028177;28;20662;-70
2021/04/08 03:24:28;;;;;;;1.70;1.23;;;0.70;86.50;;;;;;5031279;28;20184;-70
2021/04/08 03:26:55;;;;;;;1.20;1.20;;;0.70;86.20;;;;;;5032606;28;20188;-70
2021/04/08 03:29:21;;;;;;;1.33;1.23;;;0.80;86.10;;;;;;5029028;28;20219;-70
2021/04/08 03:31:47;;;;;;;1.10;1.10;;;0.80;86.10;;;;;;5032763;28;20222;-71
2021/04/08 03:34:14;;;;;;;1.50;1.47;;;0.80;86.10;;;;;;5073228;28;20834;-70
2021/04/08 03:36:40;;;;;;;1.13;1.10;;;0.80;86.10;;;;;;5097108;28;20292;-70
2021/04/08 03:39:08;;;;;;;1.67;1.57;;;0.80;86.00;;;;;;5094820;28;20210;-70
2021/04/08 03:41:43;;;;;;;2.30;1.40;;;0.80;86.20;;;;;;5093356;28;22294;-70
2021/04/08 03:44:13;;;;;;;4.53;1.20;;;0.80;86.10;;;;;;5101300;28;20181;-70
2021/04/08 03:46:40;;;;;;;2.03;1.93;;;0.80;86.10;;;;;;5092911;28;20188;-70
2021/04/08 03:49:10;;;;;;;1.17;1.17;;;0.80;86.20;;;;;;5092363;28;20214;-70
2021/04/08 03:51:37;;;;;;;0.93;0.93;;;0.80;86.10;;;;;;5092954;28;20189;-70
2021/04/08 03:54:07;;;;;;;1.10;1.10;;;0.80;85.90;;;;;;5096029;28;20193;-69
2021/04/08 03:56:36;;;;;;;3.90;1.83;;;0.90;85.80;;;;;;5096187;28;20178;-70
2021/04/08 03:59:04;;;;;;;3.57;1.60;;;0.90;85.80;;;;;;5096710;28;20186;-70
2021/04/08 04:01:31;;;;;;;1.87;1.00;;;0.90;85.70;;;;;;5090489;28;20179;-70
2021/04/08 04:04:00;;;;;;;1.63;1.53;;;0.90;85.60;;;;;;5090505;28;20236;-70
2021/04/08 04:06:27;;;;;;;2.10;2.00;;;0.90;85.50;;;;;;5095214;28;20355;-70
2021/04/08 04:08:54;;;;;;;2.07;1.70;;;0.90;85.70;;;;;;5089329;28;20254;-70
2021/04/08 04:11:20;;;;;;;2.57;2.37;;;0.90;85.70;;;;;;5092621;28;20170;-70
2021/04/08 04:13:48;;;;;;;4.00;2.30;;;0.90;85.60;;;;;;5093586;28;20626;-70
2021/04/08 04:16:16;;;;;;;1.87;1.73;;;0.90;85.70;;;;;;5093577;28;20921;-70
2021/04/08 04:18:42;;;;;;;3.60;1.97;;;1.00;85.70;;;;;;5095132;28;20801;-70
2021/04/08 04:21:09;;;;;;;1.50;1.50;;;0.90;85.50;;;;;;5092808;28;20189;-70
2021/04/08 04:23:35;;;;;;;3.87;2.23;;;0.90;85.60;;;;;;5096112;28;20180;-70
2021/04/08 04:26:01;;;;;;;1.70;1.60;;;0.90;85.80;;;;;;5096839;28;20177;-70
2021/04/08 04:28:26;;;;;;;2.20;1.37;;;0.90;85.80;;;;;;5089393;28;20246;-70
2021/04/08 04:30:52;;;;;;;1.93;1.77;;;0.90;85.90;;;;;;5096664;28;20182;-70
2021/04/08 04:33:18;;;;;;;1.83;1.67;;;0.90;85.90;;;;;;5092094;28;20182;-70
2021/04/08 04:35:43;;;;;;;2.20;2.00;;;0.90;85.90;;;;;;5095251;28;20187;-70
2021/04/08 04:38:09;;;;;;;1.73;1.63;;;0.90;85.90;;;;;;5074825;28;20178;-70
2021/04/08 04:40:35;;;;;;;1.77;1.53;;;0.90;86.00;;;;;;5092389;28;20232;-70
2021/04/08 04:43:01;;;;;;;1.80;1.70;;;1.00;86.00;;;;;;5093639;28;20657;-70
2021/04/08 04:45:26;;;;;;;2.03;1.93;;;0.90;85.90;;;;;;5095266;28;20184;-69
2021/04/08 04:47:52;;;;;;;3.43;1.80;;;0.90;85.80;;;;;;5094933;28;20198;-69
2021/04/08 04:50:18;;;;;;;1.80;1.70;;;0.90;86.00;;;;;;5092140;28;20225;-68
2021/04/08 04:52:43;;;;;;;1.43;1.30;;;1.00;85.90;;;;;;5097174;28;20248;-68
2021/04/08 04:55:10;;;;;;;1.87;1.83;;;0.90;85.70;;;;;;5091690;28;20235;-69
2021/04/08 04:57:35;;;;;;;2.20;1.60;;;0.90;85.70;;;;;;5091569;28;20198;-70
2021/04/08 05:00:03;;;;;;;1.63;1.53;;;1.00;85.80;;;;;;5098365;28;20218;-71
2021/04/08 05:02:29;;;;;;;2.17;1.97;;;0.90;85.70;;;;;;5093569;28;20294;-68
2021/04/08 05:04:55;;;;;;;1.80;1.70;;;0.90;85.80;;;;;;5094500;28;20277;-70
2021/04/08 05:07:20;;;;;;;4.30;1.77;;;1.00;85.80;;;;;;5097195;28;20180;-70
2021/04/08 05:09:46;;;;;;;1.73;1.63;;;1.00;85.80;;;;;;5095857;28;20295;-70
2021/04/08 05:12:12;;;;;;;1.73;1.70;;;1.10;85.70;;;;;;5091632;28;20182;-72
2021/04/08 05:14:38;;;;;;;1.63;1.53;;;1.10;85.40;;;;;;5089070;28;20261;-70
2021/04/08 05:17:03;;;;;;;6.00;2.37;;;1.00;85.10;;;;;;5094284;28;20272;-69
2021/04/08 05:19:31;;;;;;;2.37;2.00;;;1.10;85.20;;;;;;5089875;28;20274;-70
2021/04/08 05:21:56;;;;;;;3.27;2.97;;;1.10;85.10;;;;;;5096338;28;20185;-68
2021/04/08 05:24:22;;;;;;;3.53;1.93;;;1.10;85.00;;;;;;5094288;28;20174;-69
2021/04/08 05:26:48;;;;;;;4.63;1.47;;;1.20;85.10;;;;;;5089007;28;20182;-69
2021/04/08 05:29:14;;;;;;;1.80;1.67;;;1.20;84.90;;;;;;5091524;28;20735;-68
2021/04/08 05:31:40;;;;;;;2.20;2.07;;;1.30;84.90;;;;;;5090911;28;20189;-69
2021/04/08 05:34:06;;;;;;;2.03;1.93;;;1.20;84.40;;;;;;5071439;28;20793;-68
2021/04/08 05:36:31;;;;;;;2.73;2.23;;;1.30;84.40;;;;;;5091414;28;20181;-69
2021/04/08 05:38:57;;;;;;;1.93;1.83;;;1.30;84.40;;;;;;5089847;28;20189;-68
2021/04/08 05:41:23;;;;;;;2.03;1.83;;;1.40;84.30;;;;;;5088205;28;20251;-68
2021/04/08 05:43:49;;;;;;;2.83;2.63;;;1.40;84.00;;;;;;5093715;28;20697;-70
2021/04/08 05:46:15;;;;;;;1.97;1.77;;;1.40;84.00;;;;;;5094601;28;20224;-69
2021/04/08 05:48:41;;;;;;;4.90;2.37;;;1.50;83.80;;;;;;5087603;28;20329;-68
2021/04/08 05:51:07;;;;;;;2.70;2.50;;;1.60;83.60;;;;;;5085484;28;20185;-68
2021/04/08 05:53:33;;;;;;;2.03;1.90;;;1.60;83.50;;;;;;5092284;28;20895;-67
2021/04/08 05:55:59;;;;;;;2.43;2.30;;;1.60;83.30;;;;;;5089976;28;20178;-68
2021/04/08 05:58:24;;;;;;;2.57;2.00;;;1.70;83.00;;;;;;5089358;28;20217;-67
2021/04/08 06:00:50;;;;;;;2.10;2.00;;;1.70;82.90;;;;;;5091393;28;20174;-66
2021/04/08 06:03:16;;;;;;;2.10;2.00;;;1.60;82.70;;;;;;5089198;28;20216;-66
2021/04/08 06:05:42;;;;;;;2.20;2.10;;;1.70;82.50;;;;;;5092151;28;20178;-66
2021/04/08 06:08:08;;;;;;;2.77;2.57;;;1.70;82.20;;;;;;5089887;28;20170;-66
2021/04/08 06:10:34;;;;;;;2.50;2.30;;;1.60;82.20;;;;;;5088494;28;20273;-66
2021/04/08 06:13:00;;;;;;;2.40;2.20;;;1.70;82.30;;;;;;5092109;28;20186;-66
2021/04/08 06:15:29;;;;;;;1.80;1.80;;;1.80;82.10;;;;;;5088996;28;20178;-66
2021/04/08 06:17:54;;;;;;;3.10;2.83;;;1.70;81.90;;;;;;5089482;28;20670;-66
2021/04/08 06:20:20;;;;;;;1.80;1.70;;;1.80;82.20;;;;;;5095017;28;20265;-67
2021/04/08 06:22:46;;;;;;;2.90;2.70;;;1.90;81.90;;;;;;5093759;28;20191;-67
2021/04/08 06:25:12;;;;;;;2.30;1.80;;;2.00;81.80;;;;;;5092594;28;20201;-66
2021/04/08 06:27:38;;;;;;;2.40;2.20;;;2.00;81.80;;;;;;5100227;28;20177;-66
2021/04/08 06:30:04;;;;;;;3.03;2.83;;;2.00;81.80;;;;;;5089933;28;20225;-67
2021/04/08 06:32:30;;;;;;;2.80;1.80;;;1.90;81.60;;;;;;5075414;28;20770;-66
2021/04/08 06:34:56;;;;;;;2.60;2.40;;;1.90;81.80;;;;;;5096792;28;20188;-66
2021/04/08 06:37:22;;;;;;;2.57;2.37;;;1.80;82.20;;;;;;5096933;28;21052;-66
2021/04/08 06:39:48;;;;;;;3.43;3.07;;;1.80;82.50;;;;;;5095056;28;20269;-66
2021/04/08 06:42:34;;;;;;;2.47;2.27;;;1.80;82.50;;;;;;5094457;28;20200;-66
2021/04/08 06:45:01;;;;;;;2.27;2.17;;;1.80;82.20;;;;;;5095178;28;20182;-66
2021/04/08 06:47:32;;;;;;;2.37;2.23;;;1.80;82.40;;;;;;5093266;28;20272;-66
2021/04/08 06:50:07;;;;;;;2.20;2.10;;;1.80;82.10;;;;;;5091106;28;20214;-66
2021/04/08 06:52:33;;;;;;;2.53;2.33;;;1.90;82.20;;;;;;5092116;28;20188;-66
2021/04/08 06:54:59;;;;;;;3.40;2.53;;;2.00;82.20;;;;;;5094418;28;20210;-67
2021/04/08 06:57:25;;;;;;;3.20;2.90;;;2.00;82.30;;;;;;5086502;28;20674;-66
2021/04/08 06:59:52;;;;;;;3.73;3.43;;;2.20;82.20;;;;;;5092880;28;20196;-67
2021/04/08 07:02:19;;;;;;;3.77;2.63;;;2.30;81.70;;;;;;5091042;28;20182;-66
2021/04/08 07:04:45;;;;;;;3.03;2.80;;;2.40;81.50;;;;;;5088722;28;20192;-66
2021/04/08 07:07:13;;;;;;;3.33;2.23;;;2.50;80.50;;;;;;5087975;28;20178;-66
2021/04/08 07:09:38;;;;;;;5.23;2.73;;;2.60;79.90;;;;;;5081450;28;20216;-66
2021/04/08 07:12:05;;;;;;;2.23;2.07;;;2.70;79.90;;;;;;5088978;28;20189;-66
2021/04/08 07:14:31;;;;;;;2.97;2.77;;;2.80;79.30;;;;;;5091368;28;20182;-67
2021/04/08 07:16:56;;;;;;;3.13;2.77;;;2.80;78.60;;;;;;5088827;28;20245;-67
2021/04/08 07:19:22;;;;;;;2.63;2.50;;;2.80;78.60;;;;;;5091378;28;20685;-67
2021/04/08 07:21:48;;;;;;;3.57;3.27;;;2.90;78.60;;;;;;5089180;28;20264;-66
2021/04/08 07:24:23;;;;;;;3.10;2.87;;;3.00;78.10;;;;;;5094073;28;20303;-67
2021/04/08 07:27:07;;;;;;;3.23;2.20;;;3.00;78.20;;;;;;5090655;28;21104;-67
2021/04/08 07:29:39;;;;;;;2.20;1.40;;;3.10;78.20;;;;;;5072607;28;20689;-66
2021/04/08 07:32:06;;;;;;;6.80;3.07;;;3.20;77.50;;;;;;5111317;27;20729;-66
2021/04/08 07:34:35;;;;;;;2.93;2.50;;;3.40;77.20;;;;;;5088387;28;20230;-67
2021/04/08 07:37:01;;;;;;;3.50;2.40;;;3.40;76.70;;;;;;5089011;28;20356;-67
2021/04/08 07:39:36;;;;;;;2.83;2.40;;;3.40;76.90;;;;;;5089064;28;20651;-68
2021/04/08 07:42:16;;;;;;;2.43;2.33;;;3.40;76.90;;;;;;5090172;28;20169;-66
2021/04/08 07:44:49;;;;;;;2.57;2.37;;;3.40;76.10;;;;;;5089353;28;20186;-66
2021/04/08 07:47:59;;;;;;;7.20;1.70;;;3.40;75.60;;;;;;5087074;28;20588;-67
2021/04/08 07:50:25;;;;;;;2.97;2.77;;;3.50;75.40;;;;;;4985945;28;20223;-67
2021/04/08 07:52:51;;;;;;;2.90;2.43;;;3.60;75.90;;;;;;4997983;28;20220;-67
2021/04/08 07:55:22;;;;;;;2.07;1.97;;;3.70;76.00;;;;;;4994278;28;20730;-67
2021/04/08 07:58:12;;;;;;;2.67;2.40;;;3.80;75.60;;;;;;4990825;28;20287;-67
2021/04/08 08:00:50;;;;;;;1.93;1.83;;;4.00;75.20;;;;;;4990367;28;20189;-67
2021/04/08 08:03:33;;;;;;;1.90;1.43;;;4.20;75.80;;;;;;4975111;28;21041;-67
2021/04/08 08:06:01;;;;;;;2.00;1.90;;;4.50;73.00;;;;;;4993069;28;20189;-67
2021/04/08 08:08:41;;;;;;;2.37;2.20;;;4.60;72.10;;;;;;4991041;28;20573;-68
2021/04/08 08:11:16;;;;;;;5.20;1.37;;;4.80;71.40;;;;;;4987074;28;20194;-67
2021/04/08 08:13:48;;;;;;;1.63;1.53;;;4.80;70.90;;;;;;4987666;28;20988;-67
2021/04/08 08:16:18;;;;;;;3.73;2.27;;;4.90;70.30;;;;;;4987069;28;20367;-67
2021/04/08 08:18:45;;;;;;;1.93;1.83;;;5.10;70.90;;;;;;4993961;28;20194;-67
2021/04/08 08:21:16;;;;;;;4.67;2.07;;;5.40;70.80;;;;;;4988533;28;20206;-67
2021/04/08 08:23:51;;;;;;;1.83;1.77;;;5.60;69.80;;;;;;5022003;28;20240;-68
2021/04/08 08:26:38;;;;;;;1.83;1.73;;;5.90;68.80;;;;;;5088442;28;20174;-68
2021/04/08 08:29:28;;;;;;;2.60;2.40;;;6.10;67.70;;;;;;5094300;28;20194;-68
2021/04/08 08:32:01;;;;;;;1.93;1.83;;;6.20;65.30;;;;;;5084710;28;20186;-68
2021/04/08 08:34:31;;;;;;;3.60;2.40;;;6.40;65.70;;;;;;5091881;28;20564;-68
2021/04/08 08:37:05;;;;;;;1.80;1.70;;;6.60;66.10;;;;;;5085786;28;20677;-68
2021/04/08 08:39:33;;;;;;;2.63;2.43;;;6.80;66.50;;;;;;5092548;28;20185;-68
2021/04/08 08:42:02;;;;;;;1.63;1.53;;;7.00;66.10;;;;;;5089011;28;20661;-68
2021/04/08 08:44:28;;;;;;;1.43;1.43;;;7.10;63.20;;;;;;5092495;28;20169;-67
2021/04/08 08:47:02;;;;;;;2.43;1.93;;;7.20;63.10;;;;;;5090818;28;20671;-67
2021/04/08 08:49:40;;;;;;;1.73;1.70;;;7.20;63.10;;;;;;5088295;28;20225;-67
2021/04/08 08:52:08;;;;;;;2.67;2.47;;;7.20;63.80;;;;;;5094830;28;20178;-67
2021/04/08 08:54:34;;;;;;;2.80;2.60;;;7.10;62.80;;;;;;5092673;28;20185;-67
2021/04/08 08:57:01;;;;;;;3.50;2.10;;;6.80;63.40;;;;;;5088068;28;20632;-67
2021/04/08 08:59:28;;;;;;;3.67;2.40;;;6.60;63.90;;;;;;5093402;28;20673;-67
2021/04/08 09:01:55;;;;;;;2.13;2.03;;;6.50;64.10;;;;;;5088375;28;20239;-67
2021/04/08 09:04:21;;;;;;;2.40;2.20;;;6.40;65.40;;;;;;5073833;28;20216;-67
2021/04/08 09:06:47;;;;;;;2.00;1.90;;;6.40;65.50;;;;;;5087376;28;20231;-66
2021/04/08 09:09:15;;;;;;;2.37;2.17;;;6.50;66.20;;;;;;5089610;28;20279;-66
2021/04/08 09:11:42;;;;;;;2.20;2.00;;;6.40;65.00;;;;;;5074169;28;20652;-67
2021/04/08 09:14:10;;;;;;;3.07;2.20;;;6.40;64.70;;;;;;5088813;28;20178;-67
2021/04/08 09:16:44;;;;;;;2.00;1.90;;;6.50;64.30;;;;;;5089189;28;20178;-67
2021/04/08 09:19:10;;;;;;;4.57;1.60;;;6.40;64.00;;;;;;5086865;28;20197;-66
2021/04/08 09:21:54;;;;;;;2.03;2.00;;;6.30;64.00;;;;;;5070086;28;20182;-66
2021/04/08 09:24:42;;;;;;;2.17;2.03;;;6.30;64.50;;;;;;5092730;28;20192;-66
2021/04/08 09:27:09;;;;;;;2.40;2.20;;;6.30;64.70;;;;;;5092459;28;20598;-66
2021/04/08 09:29:38;;;;;;;2.70;1.70;;;6.50;65.30;;;;;;5084869;28;20218;-67
2021/04/08 09:32:27;;;;;;;1.50;1.50;;;6.50;65.60;;;;;;5088490;28;20228;-67
2021/04/08 09:35:07;;;;;;;1.80;1.70;;;6.70;65.80;;;;;;5090930;28;20556;-66
2021/04/08 09:37:45;;;;;;;4.47;1.93;;;6.80;65.60;;;;;;5090098;28;20181;-67
2021/04/08 09:40:36;;;;;;;3.47;2.30;;;7.00;64.60;;;;;;5089197;28;20189;-67
2021/04/08 09:43:04;;;;;;;2.50;2.30;;;7.20;64.70;;;;;;5087023;28;20657;-66
2021/04/08 09:45:31;;;;;;;1.53;1.43;;;7.20;61.90;;;;;;5086734;28;20178;-66
2021/04/08 09:48:17;;;;;;;1.80;1.70;;;7.20;61.60;;;;;;5090216;28;20185;-68
2021/04/08 09:51:03;;;;;;;4.13;2.03;;;7.20;61.10;;;;;;5092214;28;20201;-68
2021/04/08 09:53:50;;;;;;;2.00;1.70;;;7.10;61.50;;;;;;5092667;28;20309;-68
2021/04/08 09:56:16;;;;;;;1.77;1.67;;;7.80;61.50;;;;;;5091897;28;20185;-67
2021/04/08 09:58:42;;;;;;;2.13;2.03;;;8.90;59.90;;;;;;5092817;28;20247;-68
2021/04/08 10:01:10;;;;;;;1.50;1.50;;;10.00;59.50;;;;;;5085757;28;20610;-68
2021/04/08 10:03:37;;;;;;;2.77;1.73;;;10.50;58.30;;;;;;5106978;28;20185;-67
2021/04/08 10:06:24;;;;;;;2.20;2.10;;;10.40;55.30;;;;;;5086856;28;20178;-67
2021/04/08 10:08:51;;;;;;;1.67;1.57;;;9.90;54.80;;;;;;5088639;28;20690;-67
2021/04/08 10:11:31;;;;;;;2.93;2.20;;;9.50;56.20;;;;;;5068978;28;20963;-67
2021/04/08 10:13:58;;;;;;;2.27;1.80;;;9.30;57.60;;;;;;5088742;28;20190;-67
2021/04/08 10:16:23;;;;;;;2.43;2.30;;;9.00;57.10;;;;;;5090647;28;20188;-67
2021/04/08 10:19:02;;;;;;;1.73;1.63;;;8.80;57.30;;;;;;5092745;28;20182;-67
2021/04/08 10:21:29;;;;;;;1.93;1.80;;;8.40;56.90;;;;;;5094097;28;20761;-67
2021/04/08 10:23:55;;;;;;;2.17;2.07;;;8.10;57.10;;;;;;5093527;28;20192;-67
2021/04/08 10:26:33;;;;;;;2.23;2.07;;;7.90;57.70;;;;;;5087478;28;20178;-67
2021/04/08 10:29:02;;;;;;;1.80;1.70;;;7.70;57.90;;;;;;5088940;28;20725;-67
2021/04/08 10:31:32;;;;;;;1.93;1.83;;;7.70;58.60;;;;;;5093171;28;20203;-68
2021/04/08 10:34:11;;;;;;;2.47;2.37;;;8.00;58.80;;;;;;5088223;28;20178;-67
2021/04/08 10:36:40;;;;;;;1.50;1.50;;;8.40;57.70;;;;;;5091810;28;20186;-67
2021/04/08 10:39:20;;;;;;;3.37;1.73;;;8.60;57.40;;;;;;5091097;28;20181;-68
2021/04/08 10:42:09;;;;;;;1.20;1.20;;;8.80;58.40;;;;;;5088352;28;20189;-68
2021/04/08 10:45:05;;;;;;;1.30;1.27;;;9.00;57.90;;;;;;5090406;28;20197;-67
2021/04/08 10:47:34;;;;;;;1.53;1.53;;;9.20;56.80;;;;;;5085355;28;20193;-68
2021/04/08 10:50:02;;;;;;;1.70;1.60;;;9.30;57.20;;;;;;5087617;28;20210;-68
2021/04/08 10:52:36;;;;;;;5.23;2.20;;;9.20;56.70;;;;;;5093927;28;20178;-67
2021/04/08 10:55:13;;;;;;;2.13;1.87;;;8.90;57.90;;;;;;5092060;28;20182;-67
2021/04/08 10:57:41;;;;;;;5.10;2.10;;;8.70;58.60;;;;;;5093236;28;20186;-66
2021/04/08 11:00:09;;;;;;;4.87;2.47;;;8.50;58.70;;;;;;5088791;28;20185;-66
2021/04/08 11:02:37;;;;;;;2.33;2.20;;;8.20;58.90;;;;;;5068822;28;20289;-66
2021/04/08 11:05:26;;;;;;;4.00;2.57;;;8.00;59.60;;;;;;5094618;28;20307;-66
2021/04/08 11:07:59;;;;;;;2.13;2.03;;;8.50;60.00;;;;;;5091649;28;20195;-66
2021/04/08 11:10:30;;;;;;;3.07;2.33;;;9.10;59.90;;;;;;5090103;28;20205;-66
2021/04/08 11:13:00;;;;;;;2.27;2.17;;;9.70;57.80;;;;;;5091940;28;20178;-66
2021/04/08 11:15:28;;;;;;;7.77;1.80;;;9.80;55.70;;;;;;5077195;28;20546;-66
2021/04/08 11:17:56;;;;;;;1.83;1.73;;;10.00;56.20;;;;;;5095317;28;20232;-68
2021/04/08 11:20:33;;;;;;;2.00;1.70;;;10.30;55.60;;;;;;5093284;28;20187;-68
2021/04/08 11:23:00;;;;;;;1.37;1.30;;;10.50;55.20;;;;;;5092235;28;20208;-68
2021/04/08 11:25:28;;;;;;;1.30;1.30;;;10.60;54.40;;;;;;5094172;28;20182;-67
2021/04/08 11:27:59;;;;;;;1.57;1.23;;;10.60;54.40;;;;;;5094086;28;20171;-67
2021/04/08 11:30:40;;;;;;;1.30;1.30;;;10.70;54.00;;;;;;5088743;28;20334;-67
2021/04/08 11:33:08;;;;;;;1.47;1.30;;;10.80;55.30;;;;;;5094309;28;20182;-68
2021/04/08 11:35:42;;;;;;;2.70;1.33;;;10.70;53.30;;;;;;5094584;28;20186;-68
2021/04/08 11:38:20;;;;;;;1.17;1.17;;;10.50;52.90;;;;;;5093763;28;20666;-66
2021/04/08 11:40:51;;;;;;;3.80;1.10;;;10.20;52.70;;;;;;5097662;28;20246;-66
2021/04/08 11:43:29;;;;;;;1.33;1.30;;;10.00;52.80;;;;;;5091803;28;20555;-66
2021/04/08 11:46:03;;;;;;;0.83;0.83;;;9.90;51.60;;;;;;5095129;28;20185;-67
2021/04/08 11:48:44;;;;;;;1.50;1.40;;;10.20;53.70;;;;;;5094305;28;20193;-67
2021/04/08 11:51:10;;;;;;;1.00;1.00;;;11.20;51.70;;;;;;5095087;28;20914;-67
2021/04/08 11:53:38;;;;;;;6.35;1.35;;;12.00;50.50;;;;;;5095116;28;20280;-66
2021/04/08 11:56:22;;;;;;;1.38;1.38;;;12.70;50.40;;;;;;5088083;28;20190;-67
2021/04/08 11:58:48;;;;;;;1.25;1.25;;;13.50;48.90;;;;;;5088199;28;20178;-67
2021/04/08 12:01:17;;;;;;;1.58;1.58;;;13.40;48.60;;;;;;5090390;28;20180;-67
2021/04/08 12:03:48;;;;;;;1.00;1.00;;;12.80;48.10;;;;;;5094415;28;20268;-66
2021/04/08 12:06:16;;;;;;;2.45;1.70;;;11.90;49.10;;;;;;5090920;28;20673;-66
2021/04/08 12:08:49;;;;;;;1.73;1.63;;;11.10;49.00;;;;;;5090226;28;20561;-66
2021/04/08 12:11:15;;;;;;;1.42;1.42;;;10.20;51.30;;;;;;5093642;28;20186;-68
2021/04/08 12:13:42;;;;;;;1.63;1.55;;;9.50;51.30;;;;;;5088160;28;20244;-68
2021/04/08 12:16:25;;;;;;;3.45;0.98;;;9.10;53.40;;;;;;5091569;28;20174;-66
2021/04/08 12:18:55;;;;;;;0.90;0.90;;;8.80;53.50;;;;;;5087548;28;20208;-66
2021/04/08 12:21:21;;;;;;;1.97;1.63;;;8.60;52.60;;;;;;5097967;28;20182;-66
2021/04/08 12:23:48;;;;;;;1.50;1.40;;;8.20;54.40;;;;;;5094974;28;20189;-67
2021/04/08 12:26:14;;;;;;;2.10;1.10;;;7.90;55.60;;;;;;5096509;28;20181;-68
2021/04/08 12:28:42;;;;;;;0.70;0.70;;;7.60;56.80;;;;;;5089820;28;20217;-67
2021/04/08 12:31:09;;;;;;;0.80;0.80;;;7.20;58.00;;;;;;5090109;28;20734;-68
2021/04/08 12:33:39;;;;;;;0.90;0.90;;;6.90;58.20;;;;;;5089543;28;20170;-68
2021/04/08 12:36:10;;;;;;;1.00;1.00;;;6.80;58.50;;;;;;5088337;28;20178;-67
2021/04/08 12:38:37;;;;;;;0.70;0.70;;;6.80;56.80;;;;;;5091943;28;20563;-68
2021/04/08 12:41:04;;;;;;;1.17;1.17;;;6.90;59.10;;;;;;5091638;28;20178;-67
2021/04/08 12:43:31;;;;;;;0.80;0.80;;;6.70;60.60;;;;;;5087281;28;20190;-68
2021/04/08 12:45:57;;;;;;;1.20;1.20;;;6.60;60.80;;;;;;5090694;28;20186;-68
2021/04/08 12:48:23;;;;;;;2.93;1.20;;;6.50;60.60;;;;;;5074137;28;20212;-66
2021/04/08 12:50:50;;;;;;;1.03;1.03;;;6.40;59.30;;;;;;5089880;28;20225;-67
2021/04/08 12:53:19;;;;;;;3.13;1.10;;;6.40;57.80;;;;;;5090693;28;20187;-66
2021/04/08 12:55:45;;;;;;;0.90;0.90;;;6.40;57.60;;;;;;5099916;28;20178;-66
2021/04/08 12:58:11;;;;;;;0.70;0.70;;;6.40;58.20;;;;;;5089244;28;20196;-66
2021/04/08 13:00:37;;;;;;;1.17;0.63;;;6.50;57.90;;;;;;5093644;28;20265;-66
2021/04/08 13:03:09;;;;;;;1.17;0.70;;;6.50;58.00;;;;;;5093594;28;20193;-67
2021/04/08 13:05:36;;;;;;;1.80;0.80;;;6.60;57.60;;;;;;5087075;28;20323;-67
2021/04/08 13:08:03;;;;;;;1.17;1.00;;;6.60;57.50;;;;;;5091372;28;20693;-67